createdAt,value
2022-11-06T00:00:34.871Z,101425.03
2022-11-06T00:03:03.675Z,101411.63
2022-11-06T00:05:49.320Z,101412.59
2022-11-06T00:08:26.810Z,101419.72
2022-11-06T00:10:54.741Z,101418.88
2022-11-06T00:13:22.679Z,101406.44
2022-11-06T00:15:52.388Z,101410.06
2022-11-06T00:18:20.363Z,101411.03
2022-11-06T00:20:48.241Z,101421.81
2022-11-06T00:23:16.158Z,101423.72
2022-11-06T00:25:44.053Z,101427.25
2022-11-06T00:28:12.144Z,101425.50
2022-11-06T00:30:40.827Z,101424.75
2022-11-06T00:33:10.755Z,101433.63
2022-11-06T00:35:39.321Z,101430.97
2022-11-06T00:38:07.518Z,101435.44
2022-11-06T00:40:35.532Z,101432.88
2022-11-06T00:43:05.708Z,101429.31
2022-11-06T00:45:33.709Z,101423.09
2022-11-06T00:48:01.612Z,101423.09
2022-11-06T00:50:33.890Z,101410.66
2022-11-06T00:53:01.906Z,101419.53
2022-11-06T00:55:30.117Z,101418.78
2022-11-06T00:57:59.388Z,101411.59
2022-11-06T01:00:27.254Z,101423.28
2022-11-06T01:02:57.524Z,101414.34
2022-11-06T01:05:25.592Z,101413.47
2022-11-06T01:07:54.871Z,101408.22
2022-11-06T01:10:22.839Z,101408.22
2022-11-06T01:12:50.806Z,101397.50
2022-11-06T01:15:18.832Z,101394.03
2022-11-06T01:17:46.755Z,101380.66
2022-11-06T01:20:14.985Z,101386.88
2022-11-06T01:22:42.906Z,101381.59
2022-11-06T01:25:12.697Z,101379.88
2022-11-06T01:27:40.762Z,101377.22
2022-11-06T01:30:09.953Z,101378.16
2022-11-06T01:32:37.853Z,101375.56
2022-11-06T01:35:06.632Z,101378.22
2022-11-06T01:37:34.565Z,101371.16
2022-11-06T01:40:06.312Z,101374.84
2022-11-06T01:42:35.593Z,101372.97
2022-11-06T01:45:21.258Z,101377.53
2022-11-06T01:47:50.141Z,101381.97
2022-11-06T01:50:18.913Z,101380.22
2022-11-06T01:52:51.837Z,101380.22
2022-11-06T01:55:25.071Z,101364.13
2022-11-06T01:57:56.679Z,101366.91
2022-11-06T02:00:26.169Z,101362.41
2022-11-06T02:02:54.373Z,101352.66
2022-11-06T02:05:22.365Z,101351.88
2022-11-06T02:07:50.465Z,101346.50
2022-11-06T02:10:18.631Z,101346.50
2022-11-06T02:12:59.100Z,101348.34
2022-11-06T02:15:40.071Z,101344.78
2022-11-06T02:18:19.973Z,101341.25
2022-11-06T02:21:04.600Z,101351.97
2022-11-06T02:23:58.494Z,101348.44
2022-11-06T02:26:46.967Z,101345.81
2022-11-06T02:29:21.935Z,101344.00
2022-11-06T02:31:54.059Z,101335.97
2022-11-06T02:34:25.843Z,101335.09
2022-11-06T02:37:01.194Z,101336.94
2022-11-06T02:39:33.781Z,101343.13
2022-11-06T02:42:06.049Z,101338.75
2022-11-06T02:44:39.410Z,101339.69
2022-11-06T02:47:11.232Z,101346.78
2022-11-06T02:49:43.508Z,101328.13
2022-11-06T02:52:12.370Z,101337.88
2022-11-06T02:54:47.037Z,101332.63
2022-11-06T02:57:19.339Z,101330.81
2022-11-06T02:59:50.863Z,101324.59
2022-11-06T03:02:23.527Z,101325.50
2022-11-06T03:04:56.496Z,101320.09
2022-11-06T03:07:29.869Z,101314.81
2022-11-06T03:09:58.360Z,101318.44
2022-11-06T03:12:31.616Z,101314.91
2022-11-06T03:15:04.808Z,101318.53
2022-11-06T03:17:42.368Z,101326.47
2022-11-06T03:20:21.027Z,101323.00
2022-11-06T03:22:55.657Z,101324.81
2022-11-06T03:25:26.559Z,101315.84
2022-11-06T03:28:02.819Z,101314.03
2022-11-06T03:30:33.984Z,101319.41
2022-11-06T03:33:08.971Z,101322.13
2022-11-06T03:35:44.120Z,101311.44
2022-11-06T03:38:16.721Z,101316.78
2022-11-06T03:40:51.216Z,101315.91
2022-11-06T03:43:24.287Z,101315.06
2022-11-06T03:45:54.638Z,101316.78
2022-11-06T03:48:29.570Z,101307.91
2022-11-06T03:51:03.955Z,101309.72
2022-11-06T03:53:38.821Z,101299.00
2022-11-06T03:56:11.329Z,101292.78
2022-11-06T03:58:45.451Z,101299.88
2022-11-06T04:01:16.252Z,101298.13
2022-11-06T04:03:50.110Z,101291.94
2022-11-06T04:06:24.164Z,101293.66
2022-11-06T04:09:12.779Z,101297.28
2022-11-06T04:12:01.151Z,101304.44
2022-11-06T04:14:34.012Z,101277.69
2022-11-06T04:17:06.025Z,101279.50
2022-11-06T04:19:34.082Z,101283.03
2022-11-06T04:22:22.970Z,101283.97
2022-11-06T04:25:21.064Z,101275.06
2022-11-06T04:28:04.390Z,101268.78
2022-11-06T04:30:40.372Z,101273.25
2022-11-06T04:33:13.639Z,101266.19
2022-11-06T04:35:55.481Z,101261.69
2022-11-06T04:38:33.576Z,101259.00
2022-11-06T04:41:13.283Z,101254.63
2022-11-06T04:43:46.575Z,101267.03
2022-11-06T04:46:22.660Z,101264.47
2022-11-06T04:48:51.370Z,101251.09
2022-11-06T04:51:24.880Z,101253.75
2022-11-06T04:53:54.490Z,101255.47
2022-11-06T04:56:29.291Z,101242.19
2022-11-06T04:58:57.749Z,101245.72
2022-11-06T05:01:27.368Z,101235.97
2022-11-06T05:03:55.387Z,101235.13
2022-11-06T05:06:28.734Z,101229.66
2022-11-06T05:09:01.271Z,101228.88
2022-11-06T05:11:29.275Z,101219.97
2022-11-06T05:13:57.189Z,101229.75
2022-11-06T05:16:26.510Z,101228.88
2022-11-06T05:18:54.478Z,101221.81
2022-11-06T05:21:40.021Z,101226.28
2022-11-06T05:24:08.550Z,101235.19
2022-11-06T05:26:36.503Z,101229.84
2022-11-06T05:29:04.529Z,101220.94
2022-11-06T05:31:33.867Z,101231.66
2022-11-06T05:34:01.962Z,101229.94
2022-11-06T05:36:29.846Z,101234.31
2022-11-06T05:38:57.810Z,101231.66
2022-11-06T05:41:25.747Z,101228.97
2022-11-06T05:43:53.788Z,101215.59
2022-11-06T05:46:47.237Z,101220.09
2022-11-06T05:49:14.006Z,101224.56
2022-11-06T05:51:41.810Z,101219.22
2022-11-06T05:54:09.901Z,101210.34
2022-11-06T05:56:37.857Z,101203.16
2022-11-06T05:59:06.267Z,101193.38
2022-11-06T06:01:34.308Z,101196.06
2022-11-06T06:04:02.443Z,101195.19
2022-11-06T06:06:31.882Z,101184.50
2022-11-06T06:08:59.796Z,101202.63
2022-11-06T06:11:27.848Z,101191.06
2022-11-06T06:13:55.822Z,101186.47
2022-11-06T06:16:23.745Z,101185.56
2022-11-06T06:18:53.186Z,101176.56
2022-11-06T06:21:21.106Z,101182.69
2022-11-06T06:23:50.385Z,101184.50
2022-11-06T06:26:18.729Z,101179.16
2022-11-06T06:28:49.498Z,101180.00
2022-11-06T06:31:17.588Z,101180.00
2022-11-06T06:33:45.501Z,101173.78
2022-11-06T06:36:13.533Z,101182.69
2022-11-06T06:38:41.474Z,101183.56
2022-11-06T06:41:10.815Z,101175.53
2022-11-06T06:43:38.773Z,101173.72
2022-11-06T06:46:07.834Z,101173.72
2022-11-06T06:48:35.882Z,101174.75
2022-11-06T06:51:04.860Z,101172.19
2022-11-06T06:53:33.023Z,101171.38
2022-11-06T06:56:01.787Z,101173.09
2022-11-06T06:58:31.825Z,101173.03
2022-11-06T07:01:02.173Z,101177.44
2022-11-06T07:03:30.529Z,101184.50
2022-11-06T07:05:59.373Z,101180.97
2022-11-06T07:08:27.709Z,101174.66
2022-11-06T07:10:59.850Z,101169.28
2022-11-06T07:13:32.791Z,101170.19
2022-11-06T07:16:06.302Z,101166.63
2022-11-06T07:18:34.905Z,101155.84
2022-11-06T07:21:06.718Z,101155.84
2022-11-06T07:23:37.783Z,101149.63
2022-11-06T07:26:07.358Z,101137.97
2022-11-06T07:28:35.629Z,101141.50
2022-11-06T07:31:06.627Z,101137.88
2022-11-06T07:33:35.036Z,101143.22
2022-11-06T07:36:07.997Z,101134.34
2022-11-06T07:38:37.540Z,101138.75
2022-11-06T07:41:07.298Z,101149.47
2022-11-06T07:43:35.960Z,101158.34
2022-11-06T07:46:09.689Z,101150.22
2022-11-06T07:48:39.522Z,101151.19
2022-11-06T07:51:09.665Z,101145.84
2022-11-06T07:53:38.486Z,101155.59
2022-11-06T07:56:08.651Z,101157.31
2022-11-06T07:58:36.674Z,101153.75
2022-11-06T08:01:06.382Z,101157.31
2022-11-06T08:03:34.450Z,101152.16
2022-11-06T08:06:05.125Z,101152.91
2022-11-06T08:08:33.411Z,101144.78
2022-11-06T08:11:03.475Z,101145.66
2022-11-06T08:13:33.890Z,101143.91
2022-11-06T08:16:06.613Z,101140.31
2022-11-06T08:18:35.767Z,101142.09
2022-11-06T08:21:04.650Z,101128.66
2022-11-06T08:23:33.007Z,101127.84
2022-11-06T08:26:02.931Z,101142.03
2022-11-06T08:28:30.950Z,101141.16
2022-11-06T08:30:58.867Z,101139.34
2022-11-06T08:33:28.157Z,101140.22
2022-11-06T08:35:56.150Z,101145.56
2022-11-06T08:38:24.087Z,101140.22
2022-11-06T08:40:53.877Z,101127.78
2022-11-06T08:43:24.216Z,101111.63
2022-11-06T08:45:52.249Z,101108.09
2022-11-06T08:48:20.177Z,101121.47
2022-11-06T08:50:49.708Z,101099.22
2022-11-06T08:53:18.308Z,101092.13
2022-11-06T08:55:46.716Z,101096.53
2022-11-06T08:58:15.137Z,101092.03
2022-11-06T09:00:43.479Z,101088.50
2022-11-06T09:03:16.010Z,101079.50
2022-11-06T09:05:45.082Z,101075.97
2022-11-06T09:08:16.060Z,101078.53
2022-11-06T09:10:44.799Z,101076.72
2022-11-06T09:13:13.728Z,101078.53
2022-11-06T09:15:41.997Z,101088.31
2022-11-06T09:18:13.059Z,101079.41
2022-11-06T09:20:41.028Z,101084.75
2022-11-06T09:23:10.808Z,101069.59
2022-11-06T09:25:40.355Z,101066.91
2022-11-06T09:28:08.266Z,101064.47
2022-11-06T09:30:36.186Z,101059.22
2022-11-06T09:33:07.067Z,101054.84
2022-11-06T09:35:38.649Z,101046.81
2022-11-06T09:38:16.557Z,101048.41
2022-11-06T09:40:50.978Z,101035.03
2022-11-06T09:44:02.932Z,101030.56
2022-11-06T09:46:26.240Z,101025.22
2022-11-06T09:49:00.293Z,101027.91
2022-11-06T09:51:37.775Z,101020.78
2022-11-06T09:54:13.798Z,101024.34
2022-11-06T09:56:49.175Z,101024.25
2022-11-06T09:59:21.859Z,101016.22
2022-11-06T10:01:54.702Z,101018.06
2022-11-06T10:04:32.079Z,101018.06
2022-11-06T10:06:59.954Z,101020.72
2022-11-06T10:09:27.997Z,101018.91
2022-11-06T10:12:09.207Z,101014.50
2022-11-06T10:14:54.492Z,101014.50
2022-11-06T10:17:38.686Z,100996.63
2022-11-06T10:20:23.641Z,101006.50
2022-11-06T10:23:03.961Z,101002.84
2022-11-06T10:25:45.815Z,100995.78
2022-11-06T10:28:36.549Z,100997.50
2022-11-06T10:31:11.903Z,101005.53
2022-11-06T10:33:54.105Z,101009.06
2022-11-06T10:36:24.760Z,101000.16
2022-11-06T10:38:56.233Z,100994.81
2022-11-06T10:41:28.278Z,100993.84
2022-11-06T10:44:02.957Z,100985.81
2022-11-06T10:46:37.274Z,100984.88
2022-11-06T10:49:13.226Z,100988.41
2022-11-06T10:51:57.192Z,100986.63
2022-11-06T10:54:41.046Z,100993.75
2022-11-06T10:57:25.278Z,100982.97
2022-11-06T10:59:55.601Z,100971.31
2022-11-06T11:02:28.920Z,100972.09
2022-11-06T11:04:58.400Z,100966.75
2022-11-06T11:07:30.488Z,100961.28
2022-11-06T11:09:58.842Z,100950.47
2022-11-06T11:12:29.300Z,100956.59
2022-11-06T11:15:16.924Z,100952.97
2022-11-06T11:18:05.024Z,100941.28
2022-11-06T11:20:35.403Z,100939.50
2022-11-06T11:23:15.913Z,100935.84
2022-11-06T11:25:46.170Z,100930.50
2022-11-06T11:28:26.454Z,100932.31
2022-11-06T11:30:59.939Z,100934.91
2022-11-06T11:33:28.224Z,100924.19
2022-11-06T11:35:56.311Z,100915.19
2022-11-06T11:38:26.022Z,100912.63
2022-11-06T11:41:07.507Z,100907.28
2022-11-06T11:43:35.524Z,100901.91
2022-11-06T11:46:21.550Z,100913.47
2022-11-06T11:48:51.646Z,100907.28
2022-11-06T11:51:29.458Z,100905.44
2022-11-06T11:54:02.581Z,100900.19
2022-11-06T11:57:02.377Z,100888.81
2022-11-06T11:59:22.028Z,100885.38
2022-11-06T12:01:51.583Z,100891.78
2022-11-06T12:04:27.658Z,100875.81
2022-11-06T12:07:02.111Z,100859.16
2022-11-06T12:09:34.116Z,100865.09
2022-11-06T12:12:04.212Z,100854.47
2022-11-06T12:14:37.543Z,100850.94
2022-11-06T12:17:15.522Z,100839.19
2022-11-06T12:19:50.113Z,100839.00
2022-11-06T12:22:28.031Z,100835.38
2022-11-06T12:25:01.139Z,100839.56
2022-11-06T12:27:33.609Z,100829.84
2022-11-06T12:30:07.291Z,100829.84
2022-11-06T12:32:48.775Z,100819.13
2022-11-06T12:35:25.510Z,100820.06
2022-11-06T12:38:05.222Z,100817.69
2022-11-06T12:40:36.495Z,100806.22
2022-11-06T12:43:16.848Z,100804.69
2022-11-06T12:45:58.444Z,100808.22
2022-11-06T12:48:49.013Z,100795.78
2022-11-06T12:51:26.817Z,100791.50
2022-11-06T12:54:09.111Z,100787.97
2022-11-06T12:56:46.653Z,100781.72
2022-11-06T12:59:27.807Z,100778.31
2022-11-06T13:02:05.469Z,100775.75
2022-11-06T13:04:45.658Z,100779.34
2022-11-06T13:07:39.136Z,100775.06
2022-11-06T13:10:25.164Z,100775.25
2022-11-06T13:13:12.744Z,100775.25
2022-11-06T13:15:50.848Z,100775.31
2022-11-06T13:18:25.433Z,100772.66
2022-11-06T13:21:01.612Z,100770.94
2022-11-06T13:23:33.782Z,100768.38
2022-11-06T13:26:08.271Z,100770.25
2022-11-06T13:28:41.609Z,100766.72
2022-11-06T13:31:13.340Z,100767.69
2022-11-06T13:33:45.061Z,100773.16
2022-11-06T13:36:14.866Z,100767.81
2022-11-06T13:38:48.409Z,100768.69
2022-11-06T13:41:21.642Z,100756.22
2022-11-06T13:43:53.898Z,100751.78
2022-11-06T13:46:28.913Z,100744.75
2022-11-06T13:49:14.212Z,100738.44
2022-11-06T13:51:52.059Z,100750.94
2022-11-06T13:54:29.413Z,100736.72
2022-11-06T13:57:24.401Z,100739.38
2022-11-06T14:00:12.817Z,100734.03
2022-11-06T14:03:10.652Z,100741.09
2022-11-06T14:05:54.414Z,100741.06
2022-11-06T14:08:28.843Z,100736.16
2022-11-06T14:11:02.718Z,100738.47
2022-11-06T14:13:33.273Z,100733.69
2022-11-06T14:16:25.172Z,100737.69
2022-11-06T14:19:02.990Z,100742.66
2022-11-06T14:21:52.442Z,100735.19
2022-11-06T14:24:40.274Z,100746.38
2022-11-06T14:27:13.307Z,100744.34
2022-11-06T14:30:00.571Z,100739.56
2022-11-06T14:32:49.620Z,100738.41
2022-11-06T14:35:55.849Z,100747.78
2022-11-06T14:38:44.337Z,100738.59
2022-11-06T14:41:51.582Z,100737.50
2022-11-06T14:44:40.896Z,100752.34
2022-11-06T14:47:38.512Z,100751.19
2022-11-06T14:50:10.737Z,100756.34
2022-11-06T14:52:44.981Z,100754.31
2022-11-06T14:55:28.311Z,100756.91
2022-11-06T14:57:59.358Z,100738.91
2022-11-06T15:00:44.770Z,100744.06
2022-11-06T15:03:27.591Z,100747.53
2022-11-06T15:06:01.726Z,100742.16
2022-11-06T15:08:57.170Z,100738.53
2022-11-06T15:11:54.226Z,100736.63
2022-11-06T15:15:03.729Z,100734.69
2022-11-06T15:17:37.509Z,100732.78
2022-11-06T15:20:32.756Z,100723.75
2022-11-06T15:23:20.301Z,100714.63
2022-11-06T15:25:58.899Z,100702.13
2022-11-06T15:28:33.231Z,100718.94
2022-11-06T15:31:05.382Z,100710.06
2022-11-06T15:33:39.445Z,100710.72
2022-11-06T15:36:13.743Z,100703.53
2022-11-06T15:38:43.420Z,100707.91
2022-11-06T15:41:16.239Z,100705.16
2022-11-06T15:43:46.995Z,100702.34
2022-11-06T15:46:22.502Z,100701.38
2022-11-06T15:49:08.473Z,100695.94
2022-11-06T15:51:40.041Z,100683.41
2022-11-06T15:54:14.376Z,100680.59
2022-11-06T15:56:42.944Z,100668.94
2022-11-06T15:59:13.123Z,100668.81
2022-11-06T16:01:42.263Z,100662.59
2022-11-06T16:04:18.187Z,100660.66
2022-11-06T16:06:47.606Z,100649.00
2022-11-06T16:09:19.320Z,100641.81
2022-11-06T16:11:48.865Z,100645.34
2022-11-06T16:14:17.494Z,100639.88
2022-11-06T16:16:48.707Z,100630.97
2022-11-06T16:19:28.435Z,100625.53
2022-11-06T16:22:00.597Z,100628.22
2022-11-06T16:24:29.792Z,100606.66
2022-11-06T16:26:57.805Z,100596.78
2022-11-06T16:29:28.573Z,100597.56
2022-11-06T16:32:02.002Z,100596.66
2022-11-06T16:34:45.872Z,100582.31
2022-11-06T16:37:46.356Z,100571.59
2022-11-06T16:40:47.750Z,100562.47
2022-11-06T16:43:17.494Z,100557.09
2022-11-06T16:45:54.090Z,100557.97
2022-11-06T16:48:31.647Z,100548.22
2022-11-06T16:51:03.267Z,100547.47
2022-11-06T16:53:33.178Z,100546.72
2022-11-06T16:56:04.650Z,100534.28
2022-11-06T16:58:35.278Z,100533.44
2022-11-06T17:01:06.266Z,100532.47
2022-11-06T17:03:40.570Z,100530.63
2022-11-06T17:06:21.257Z,100520.03
2022-11-06T17:09:03.597Z,100533.44
2022-11-06T17:11:34.513Z,100527.88
2022-11-06T17:14:15.159Z,100521.63
2022-11-06T17:16:49.626Z,100520.88
2022-11-06T17:19:20.008Z,100510.28
2022-11-06T17:21:50.083Z,100518.41
2022-11-06T17:24:36.072Z,100522.06
2022-11-06T17:27:05.389Z,100525.72
2022-11-06T17:29:37.111Z,100521.31
2022-11-06T17:32:05.696Z,100520.44
2022-11-06T17:34:36.153Z,100510.72
2022-11-06T17:37:05.453Z,100521.53
2022-11-06T17:39:34.021Z,100525.38
2022-11-06T17:42:01.940Z,100520.91
2022-11-06T17:44:30.113Z,100516.41
2022-11-06T17:46:58.086Z,100512.94
2022-11-06T17:49:26.066Z,100516.59
2022-11-06T17:51:58.426Z,100506.88
2022-11-06T17:54:30.397Z,100504.19
2022-11-06T17:56:59.479Z,100507.94
2022-11-06T17:59:27.481Z,100507.06
2022-11-06T18:01:56.358Z,100508.03
2022-11-06T18:04:25.997Z,100506.31
2022-11-06T18:06:54.834Z,100504.59
2022-11-06T18:09:25.369Z,100501.19
2022-11-06T18:11:57.290Z,100500.41
2022-11-06T18:14:27.614Z,100496.03
2022-11-06T18:16:58.582Z,100495.28
2022-11-06T18:19:27.295Z,100494.41
2022-11-06T18:21:56.419Z,100501.59
2022-11-06T18:24:24.804Z,100491.88
2022-11-06T18:26:56.135Z,100490.16
2022-11-06T18:29:24.301Z,100483.91
2022-11-06T18:31:52.271Z,100484.81
2022-11-06T18:34:21.325Z,100486.72
2022-11-06T18:36:50.275Z,100489.50
2022-11-06T18:39:19.357Z,100483.28
2022-11-06T18:41:47.325Z,100488.63
2022-11-06T18:44:18.134Z,100488.63
2022-11-06T18:46:46.814Z,100486.91
2022-11-06T18:49:15.041Z,100486.91
2022-11-06T18:51:43.229Z,100484.38
2022-11-06T18:54:13.082Z,100469.25
2022-11-06T18:56:41.045Z,100478.16
2022-11-06T18:59:16.033Z,100479.84
2022-11-06T19:01:45.481Z,100488.88
2022-11-06T19:04:13.882Z,100488.00
2022-11-06T19:06:42.414Z,100489.81
2022-11-06T19:09:10.834Z,100492.47
2022-11-06T19:11:38.755Z,100498.81
2022-11-06T19:14:07.267Z,100492.47
2022-11-06T19:16:35.236Z,100496.25
2022-11-06T19:19:06.892Z,100506.09
2022-11-06T19:21:35.706Z,100505.16
2022-11-06T19:24:06.741Z,100510.50
2022-11-06T19:26:36.462Z,100519.47
2022-11-06T19:29:05.960Z,100513.19
2022-11-06T19:31:34.830Z,100507.03
2022-11-06T19:34:06.041Z,100507.81
2022-11-06T19:36:37.240Z,100503.41
2022-11-06T19:39:06.808Z,100511.44
2022-11-06T19:41:35.290Z,100513.19
2022-11-06T19:44:03.210Z,100501.66
2022-11-06T19:46:36.107Z,100505.22
2022-11-06T19:49:06.567Z,100508.00
2022-11-06T19:51:35.281Z,100508.00
2022-11-06T19:54:03.223Z,100515.19
2022-11-06T19:56:31.232Z,100498.13
2022-11-06T19:58:59.366Z,100502.56
2022-11-06T20:01:27.864Z,100494.59
2022-11-06T20:03:55.849Z,100500.06
2022-11-06T20:06:27.431Z,100504.59
2022-11-06T20:08:55.752Z,100501.91
2022-11-06T20:11:24.005Z,100492.91
2022-11-06T20:13:52.274Z,100500.94
2022-11-06T20:16:21.410Z,100493.88
2022-11-06T20:18:52.467Z,100508.97
2022-11-06T20:21:21.043Z,100498.25
2022-11-06T20:23:50.727Z,100502.63
2022-11-06T20:26:18.697Z,100500.06
2022-11-06T20:28:48.441Z,100499.09
2022-11-06T20:31:19.622Z,100504.34
2022-11-06T20:33:47.740Z,100509.66
2022-11-06T20:36:18.909Z,100520.34
2022-11-06T20:38:48.720Z,100528.44
2022-11-06T20:41:18.154Z,100509.69
2022-11-06T20:43:46.670Z,100537.38
2022-11-06T20:46:16.657Z,100529.34
2022-11-06T20:48:45.904Z,100546.25
2022-11-06T20:51:16.034Z,100548.84
2022-11-06T20:53:44.453Z,100552.28
2022-11-06T20:56:14.448Z,100559.44
2022-11-06T20:58:44.195Z,100555.06
2022-11-06T21:01:14.606Z,100559.34
2022-11-06T21:03:42.632Z,100553.03
2022-11-06T21:06:11.079Z,100554.84
2022-11-06T21:08:40.640Z,100558.38
2022-11-06T21:11:11.557Z,100554.84
2022-11-06T21:13:41.295Z,100548.66
2022-11-06T21:16:14.211Z,100556.69
2022-11-06T21:18:42.834Z,100550.34
2022-11-06T21:21:12.827Z,100554.84
2022-11-06T21:23:41.108Z,100551.22
2022-11-06T21:26:11.241Z,100557.41
2022-11-06T21:28:40.121Z,100558.28
2022-11-06T21:31:11.880Z,100562.69
2022-11-06T21:33:40.872Z,100568.78
2022-11-06T21:36:10.706Z,100566.09
2022-11-06T21:38:38.901Z,100574.06
2022-11-06T21:41:07.525Z,100568.56
2022-11-06T21:43:35.935Z,100566.75
2022-11-06T21:46:05.219Z,100570.28
2022-11-06T21:48:50.822Z,100569.34
2022-11-06T21:51:21.250Z,100581.56
2022-11-06T21:54:07.445Z,100583.28
2022-11-06T21:56:36.182Z,100583.28
2022-11-06T21:59:08.502Z,100582.41
2022-11-06T22:01:36.936Z,100578.88
2022-11-06T22:04:07.172Z,100582.31
2022-11-06T22:06:35.561Z,100581.44
2022-11-06T22:09:05.237Z,100583.06
2022-11-06T22:11:34.819Z,100577.47
2022-11-06T22:14:06.173Z,100583.81
2022-11-06T22:16:36.287Z,100583.81
2022-11-06T22:19:07.778Z,100588.31
2022-11-06T22:21:37.453Z,100583.81
2022-11-06T22:24:06.923Z,100581.97
2022-11-06T22:26:35.941Z,100574.91
2022-11-06T22:29:06.200Z,100569.44
2022-11-06T22:31:34.436Z,100576.63
2022-11-06T22:34:02.398Z,100584.78
2022-11-06T22:36:31.751Z,100577.47
2022-11-06T22:39:00.697Z,100575.69
2022-11-06T22:41:28.703Z,100574.78
2022-11-06T22:43:59.277Z,100588.19
2022-11-06T22:46:28.352Z,100589.06
2022-11-06T22:48:56.528Z,100587.97
2022-11-06T22:51:26.129Z,100589.81
2022-11-06T22:53:55.739Z,100599.69
2022-11-06T22:56:25.536Z,100606.75
2022-11-06T22:58:54.717Z,100607.72
2022-11-06T23:01:23.490Z,100604.19
2022-11-06T23:03:56.487Z,100605.16
2022-11-06T23:06:25.668Z,100614.03
2022-11-06T23:08:55.563Z,100617.66
2022-11-06T23:11:26.422Z,100610.59
2022-11-06T23:13:55.161Z,100614.25
2022-11-06T23:16:39.278Z,100624.00
2022-11-06T23:19:07.598Z,100630.44
2022-11-06T23:21:35.499Z,100626.88
2022-11-06T23:24:05.914Z,100632.22
2022-11-06T23:26:34.257Z,100635.03
2022-11-06T23:29:04.649Z,100635.88
2022-11-06T23:31:32.693Z,100633.31
2022-11-06T23:34:00.627Z,100644.91
2022-11-06T23:36:28.602Z,100641.38
2022-11-06T23:38:56.645Z,100644.03
2022-11-06T23:41:45.488Z,100643.19
2022-11-06T23:44:28.124Z,100640.72
2022-11-06T23:46:55.873Z,100655.81
2022-11-06T23:49:24.300Z,100653.13
2022-11-06T23:51:52.557Z,100654.00
2022-11-06T23:54:20.450Z,100651.31
2022-11-06T23:56:49.695Z,100654.97
2022-11-06T23:59:17.742Z,100655.06
